Date,TemperatureHighF,TemperatureAvgF,TemperatureLowF,DewpointHighF,DewpointAvgF,DewpointLowF,HumidityHigh,HumidityAvg,HumidityLow,PressureMaxIn,PressureMinIn,WindSpeedMaxMPH,WindSpeedAvgMPH,GustSpeedMaxMPH,PrecipitationSumIn
2013-7-1,79.3,76.3,73.0,74.4,72.5,69.3,92,88,84,29.78,29.64,0,-999,0,0.00
2013-7-2,90.9,79.6,73.9,76.0,72.2,69.6,93,79,54,29.90,29.75,0,-999,0,0.00
2013-7-3,95.4,79.6,74.3,76.6,72.6,68.3,88,80,55,29.90,29.84,0,-999,0,0.00
2013-7-4,92.3,79.5,75.2,74.9,71.7,68.3,88,78,53,29.95,29.85,0,-999,0,0.00
2013-7-5,88.9,79.6,75.4,75.0,72.5,69.3,89,80,61,29.93,29.84,0,-999,0,0.00
2013-7-6,94.1,82.4,76.1,75.1,72.9,70.5,89,75,48,29.93,29.84,0,-999,0,0.00
2013-7-7,92.7,83.0,78.1,75.0,72.7,70.0,85,72,51,29.95,29.84,0,-999,0,0.00
2013-7-8,95.9,84.2,78.3,74.8,72.5,68.4,87,70,44,29.99,29.90,0,-999,0,0.00
2013-7-9,96.1,84.7,78.1,74.1,70.4,66.5,80,64,42,29.99,29.87,0,-999,0,0.00
2013-7-10,92.8,82.9,75.6,72.4,70.4,67.1,84,67,46,29.92,29.79,0,-999,0,0.00
2013-7-11,88.9,80.8,76.6,75.9,72.6,69.4,87,77,61,29.85,29.75,0,-999,0,0.00
2013-7-12,91.9,82.0,77.5,75.2,72.0,69.7,84,73,50,29.77,29.71,0,-999,0,0.00
2013-7-13,90.1,80.3,75.2,75.3,71.9,68.2,86,76,60,29.82,29.72,0,-999,0,0.00
2013-7-14,91.9,80.3,75.2,76.6,72.5,70.5,88,78,58,29.90,29.77,0,-999,0,0.00
2013-7-15,94.3,81.6,75.6,73.3,70.9,68.0,86,71,45,29.94,29.84,0,-999,0,0.00
2013-7-16,90.5,79.9,74.7,73.9,71.8,68.9,88,77,51,29.97,29.88,0,-999,0,0.00
2013-7-17,91.0,79.4,74.3,74.2,72.4,69.1,88,80,53,29.97,29.88,0,-999,0,0.00
2013-7-18,92.3,79.1,74.8,73.2,71.5,68.6,89,79,54,29.94,29.87,0,-999,0,0.00
2013-7-19,92.1,79.3,74.5,75.8,71.9,69.6,90,79,56,29.95,29.87,0,-999,0,0.00
2013-7-20,93.9,81.2,75.4,78.5,72.6,69.2,87,76,54,29.93,29.84,0,-999,0,0.00
2013-7-21,91.6,83.2,76.6,78.3,73.8,70.3,88,74,57,29.96,29.86,0,-999,0,0.00
2013-7-22,89.6,84.2,79.2,77.6,73.9,71.3,87,72,56,29.96,29.88,0,-999,0,0.00
2013-7-23,89.1,83.6,79.2,75.4,72.1,70.1,80,69,54,29.93,29.80,0,-999,0,0.00
2013-7-24,88.9,84.0,80.1,73.9,72.1,69.9,81,68,54,29.84,29.74,0,-999,0,0.00
2013-7-25,88.5,83.7,79.3,74.8,73.3,70.3,86,71,56,29.83,29.70,0,-999,0,0.00
2013-7-26,92.1,83.2,76.6,76.7,73.4,69.7,89,73,51,29.85,29.76,0,-999,0,0.00
2013-7-27,95.5,85.9,79.9,76.0,71.6,67.1,84,64,42,29.83,29.75,0,-999,0,0.00
2013-7-28,92.7,83.8,78.4,75.0,71.0,67.6,79,66,50,29.88,29.75,0,-999,0,0.00
2013-7-29,95.4,85.2,78.4,76.9,70.9,66.1,79,64,41,29.98,29.84,0,-999,0,0.00
2013-7-30,96.3,85.6,79.7,75.4,71.8,68.5,81,65,43,30.01,29.89,0,-999,0,0.00
2013-7-31,96.8,85.4,79.9,77.0,73.6,69.4,86,69,43,29.96,29.84,0,-999,0,0.00